Satumimaru — JD3925 — position and weather

sailwx.info

Track history (hours):
 
Tides and Currents Weather Stations Pressure Air Temp Water Temp Dewpoint Dewpoint Depression Visibility Wind Speed Wind Dir Waves Ship Positions

Satumimaru

Last reported at 2017-Dec-17 07:35 UTC. Time now 2017-Dec-18 16:31 UTC.
Position N 33°13' E 131°55'.

Length 82 m; draft 5.4 m.

Type: Cargo ship. MMSI: 431007046.

Date/timePositionNaut miles runAvg speedWind from/ knotsBaromVisibWave heightAir tempDewpointWater temp
2017-Dec-17 07:35N 33°13' E 131°55'4 9.9
2017-Dec-17 07:09N 33°17' E 131°53'212.7
2017-Dec-17 07:00N 33°17' E 131°51'612.5
2017-Dec-17 06:29N 33°17' E 131°43'5 0.7
2017-Dec-16 23:31N 33°16' E 131°37'0 4.3
2017-Dec-16 23:30N 33°16' E 131°37'1 1.8
2017-Dec-16 22:58N 33°17' E 131°37'1 2.8
2017-Dec-16 22:27N 33°18' E 131°38'5 7.5
2017-Dec-16 21:48N 33°21' E 131°43'5 7.7
2017-Dec-16 21:11N 33°23' E 131°48'410.3
2017-Dec-16 20:50N 33°25' E 131°51'3310.3
2017-Dec-16 17:36N 33°45' E 132°24'112.1
2017-Dec-16 17:29N 33°46' E 132°25'612.0
2017-Dec-16 17:00N 33°49' E 132°31'612.3
2017-Dec-16 16:31N 33°53' E 132°36'712.8
2017-Dec-16 16:00N 33°57' E 132°42'7910.9
2017-Dec-16 08:44N 34°32' E 134°08'1411.3
2017-Dec-16 07:29N 34°39' E 134°23'710.9
2017-Dec-16 06:50N 34°42' E 134°31'410.9
2017-Dec-16 06:30N 34°43' E 134°35'5 7.1
2017-Dec-16 05:49N 34°47' E 134°39'0 0.0
2017-Dec-16 01:06N 34°47' E 134°39'0 0.1
2017-Dec-16 01:00N 34°47' E 134°39'0 0.0
2017-Dec-15 07:45N 34°47' E 134°39'1 4.5
2017-Dec-15 07:25N 34°45' E 134°39'0 0.1
2017-Dec-15 06:58N 34°45' E 134°39'0 0.0
2017-Dec-15 06:28N 34°45' E 134°39'0 0.1
2017-Dec-15 05:53N 34°45' E 134°39'4 9.4
2017-Dec-15 05:30N 34°43' E 134°36'610.9
2017-Dec-15 04:57N 34°42' E 134°29'23 1.0
2017-Dec-14 05:01N 34°18' E 134°30'0 9.9
2017-Dec-14 05:00N 34°18' E 134°30'611.3
2017-Dec-14 04:27N 34°16' E 134°37'510.1
2017-Dec-14 04:00N 34°12' E 134°39'611.1
2017-Dec-14 03:27N 34°06' E 134°38'511.0
2017-Dec-14 03:00N 34°01' E 134°37'1 0.4
2017-Dec-13 23:58N 33°60' E 134°37'0 0.1
2017-Dec-13 23:13N 33°60' E 134°37'1 4.4
2017-Dec-13 22:59N 34°01' E 134°37'0 0.3
2017-Dec-13 22:00N 34°01' E 134°37'1011.6
2017-Dec-13 21:06N 34°11' E 134°40'113.4
2017-Dec-13 21:00N 34°12' E 134°40'611.9
2017-Dec-13 20:30N 34°18' E 134°37'612.6
2017-Dec-13 20:00N 34°24' E 134°37'612.3
2017-Dec-13 19:30N 34°30' E 134°37'612.4
2017-Dec-13 19:00N 34°37' E 134°38'612.4
2017-Dec-13 18:30N 34°43' E 134°38'2 3.0
2017-Dec-13 17:59N 34°44' E 134°38'0 0.0
2017-Dec-13 17:29N 34°44' E 134°38'0 0.0
2017-Dec-13 16:59N 34°44' E 134°38'0 0.0
2017-Dec-13 16:29N 34°44' E 134°38'2 4.7
2017-Dec-13 15:58N 34°47' E 134°38'0 0.1
2017-Dec-13 14:15N 34°47' E 134°38'0 0.0
2017-Dec-13 13:57N 34°47' E 134°38'0 0.0
2017-Dec-13 12:39N 34°47' E 134°38'0 0.0
2017-Dec-13 12:27N 34°47' E 134°38'1 0.3
2017-Dec-13 07:52N 34°45' E 134°38'1 1.1
2017-Dec-13 07:24N 34°45' E 134°38'0 0.0
2017-Dec-13 07:00N 34°45' E 134°38'0 0.0
2017-Dec-13 06:12N 34°45' E 134°38'0 0.0
2017-Dec-13 05:48N 34°45' E 134°38'0 0.1
2017-Dec-13 05:30N 34°45' E 134°38'0 0.0
2017-Dec-13 05:00N 34°45' E 134°38'0 0.0
2017-Dec-13 04:30N 34°45' E 134°38'0 0.0
2017-Dec-13 03:48N 34°45' E 134°38'0 0.0
2017-Dec-13 02:06N 34°45' E 134°38'0 0.0
2017-Dec-12 19:12N 34°45' E 134°38'0 0.0
2017-Dec-12 18:42N 34°45' E 134°38'0 0.0
2017-Dec-12 18:30N 34°45' E 134°38'0 0.0
2017-Dec-12 17:36N 34°45' E 134°38'0 0.0
2017-Dec-12 17:30N 34°45' E 134°38'0 0.0
2017-Dec-12 15:06N 34°45' E 134°38'0 0.0
2017-Dec-12 15:00N 34°45' E 134°38'0 0.0
2017-Dec-12 14:30N 34°45' E 134°38'0 0.0
2017-Dec-12 14:00N 34°45' E 134°38'0 0.0
2017-Dec-12 13:18N 34°45' E 134°38'0 0.0
2017-Dec-12 12:12N 34°45' E 134°38'1 3.0
2017-Dec-12 11:58N 34°44' E 134°39'4 9.5
2017-Dec-12 11:30N 34°40' E 134°38'612.0
2017-Dec-12 10:59N 34°34' E 134°38'611.7
2017-Dec-12 10:30N 34°28' E 134°38'611.7
2017-Dec-12 10:00N 34°22' E 134°38'9 9.6
2017-Dec-12 09:03N 34°13' E 134°40'610.7
2017-Dec-12 08:30N 34°09' E 134°45'1411.0
2017-Dec-12 07:14N 33°58' E 134°56'105 7.2
2017-Dec-11 16:38N 34°38' E 136°54'212.2
2017-Dec-11 16:30N 34°39' E 136°52'611.4
2017-Dec-11 16:00N 34°43' E 136°48'611.6
2017-Dec-11 15:30N 34°49' E 136°46'611.7
2017-Dec-11 15:00N 34°55' E 136°46'510.7
2017-Dec-11 14:30N 34°59' E 136°49'5 9.4
2017-Dec-11 14:00N 35°03' E 136°53'0 0.3
2017-Dec-11 13:30N 35°03' E 136°53'0 0.0
2017-Dec-11 13:00N 35°03' E 136°53'0 0.0
2017-Dec-11 12:30N 35°03' E 136°53'0 0.0
2017-Dec-11 12:00N 35°03' E 136°53'0 0.0
2017-Dec-11 11:30N 35°03' E 136°53'0 0.0
2017-Dec-11 11:00N 35°03' E 136°53'0 0.0
2017-Dec-11 10:30N 35°03' E 136°53'0 0.0
2017-Dec-11 10:00N 35°03' E 136°53'0 0.0
2017-Dec-11 09:30N 35°03' E 136°53'0 0.0
2017-Dec-11 09:00N 35°03' E 136°53'0 0.0
2017-Dec-11 08:30N 35°03' E 136°53'0 0.0
2017-Dec-11 08:00N 35°03' E 136°53'0 0.0
2017-Dec-11 07:30N 35°03' E 136°53'0 0.0
2017-Dec-11 07:00N 35°03' E 136°53'0 0.0
2017-Dec-11 06:30N 35°03' E 136°53'0 0.8
2017-Dec-11 06:00N 35°03' E 136°53'2 3.5
2017-Dec-11 05:30N 35°02' E 136°51'510.8
2017-Dec-11 05:00N 34°57' E 136°47'0 0.2
2017-Dec-11 04:30N 34°57' E 136°47'0 0.0
2017-Dec-11 04:00N 34°57' E 136°47'0 0.0
2017-Dec-11 03:30N 34°57' E 136°47'0 0.0
2017-Dec-11 03:00N 34°57' E 136°47'0 0.0
2017-Dec-11 02:30N 34°57' E 136°47'0 0.0
2017-Dec-11 02:00N 34°57' E 136°47'0 0.0
2017-Dec-11 01:30N 34°57' E 136°47'0 0.1
2017-Dec-11 01:00N 34°57' E 136°47'0 0.0
2017-Dec-11 00:30N 34°57' E 136°47'0 0.0
2017-Dec-11 00:00N 34°57' E 136°47'0 0.0
2017-Dec-10 23:30N 34°57' E 136°47'0 0.0
2017-Dec-10 23:00N 34°57' E 136°47'1 1.1
2017-Dec-10 22:30N 34°57' E 136°47'611.7
2017-Dec-10 22:00N 34°51' E 136°46'612.5
2017-Dec-10 21:30N 34°45' E 136°49'612.5
2017-Dec-10 21:00N 34°40' E 136°53'9612.1
2017-Dec-10 13:05N 34°35' E 138°49'511.8
2017-Dec-10 12:41N 34°36' E 138°54'211.3
2017-Dec-10 12:31N 34°36' E 138°57'612.8
2017-Dec-10 12:00N 34°40' E 139°03'812.9
2017-Dec-10 11:21N 34°46' E 139°11'1710.7
2017-Dec-10 09:47N 34°56' E 139°26'310.3
2017-Dec-10 09:30N 34°58' E 139°29'510.8
2017-Dec-10 09:00N 35°02' E 139°34'611.4
2017-Dec-10 08:30N 35°06' E 139°39'612.2
2017-Dec-10 08:00N 35°10' E 139°44'611.5
2017-Dec-10 07:30N 35°15' E 139°46'612.2
2017-Dec-10 07:00N 35°21' E 139°42'510.3
2017-Dec-10 06:30N 35°25' E 139°45'611.5
2017-Dec-10 06:00N 35°23' E 139°51'1 2.3
2017-Dec-10 05:30N 35°22' E 139°53'0 0.0
2017-Dec-10 04:59N 35°22' E 139°53'0 0.0
2017-Dec-10 04:26N 35°22' E 139°53'0 0.0
2017-Dec-10 03:59N 35°22' E 139°53'0 0.0
2017-Dec-10 03:26N 35°22' E 139°53'0 0.0
2017-Dec-10 02:59N 35°22' E 139°53'0 0.0
2017-Dec-10 02:29N 35°22' E 139°53'0 0.0
2017-Dec-10 01:59N 35°22' E 139°53'0 0.0
2017-Dec-10 01:26N 35°22' E 139°53'0 0.0
2017-Dec-10 00:59N 35°22' E 139°53'0 0.0
2017-Dec-10 00:26N 35°22' E 139°53'0 0.0
2017-Dec-09 23:59N 35°22' E 139°53'0 0.0
2017-Dec-09 23:26N 35°22' E 139°53'0 0.0
2017-Dec-09 22:50N 35°22' E 139°53'0 0.0
2017-Dec-09 22:17N 35°22' E 139°53'0 0.0
2017-Dec-09 21:56N 35°22' E 139°53'0 0.0
2017-Dec-09 21:26N 35°22' E 139°53'0 0.0
2017-Dec-09 21:00N 35°22' E 139°53'1 2.6
2017-Dec-09 20:30N 35°23' E 139°51'2 4.0
2017-Dec-09 20:00N 35°23' E 139°49'1 1.5
2017-Dec-09 19:31N 35°23' E 139°48'3 6.5
2017-Dec-09 19:01N 35°21' E 139°45'5 9.5
2017-Dec-09 18:31N 35°16' E 139°46'510.1
2017-Dec-09 18:00N 35°11' E 139°47'510.3
2017-Dec-09 17:30N 35°07' E 139°42'611.1
2017-Dec-09 17:01N 35°04' E 139°38'612.7
2017-Dec-09 16:31N 34°59' E 139°32'813.0
2017-Dec-09 15:56N 34°54' E 139°25'813.4
2017-Dec-09 15:21N 34°49' E 139°18'513.1
2017-Dec-09 15:00N 34°46' E 139°14'714.0
2017-Dec-09 14:30N 34°42' E 139°07'712.5
2017-Dec-09 13:56N 34°37' E 139°00'612.7
2017-Dec-09 13:30N 34°35' E 138°55'813.1
2017-Dec-09 12:56N 34°34' E 138°45'613.3
2017-Dec-09 12:30N 34°33' E 138°39'713.1
2017-Dec-09 11:58N 34°32' E 138°30'612.0
2017-Dec-09 11:29N 34°31' E 138°23'611.8
2017-Dec-09 10:59N 34°30' E 138°16'16210.0
2017-Dec-08 18:45N 33°46' E 135°07'311.5
2017-Dec-08 18:29N 33°49' E 135°05'611.7
2017-Dec-08 18:00N 33°53' E 135°00'611.8
2017-Dec-08 17:30N 33°57' E 134°56'611.7
2017-Dec-08 17:00N 34°02' E 134°51'611.9
2017-Dec-08 16:30N 34°06' E 134°47'611.9
2017-Dec-08 16:00N 34°11' E 134°42'611.2
2017-Dec-08 15:30N 34°15' E 134°38'611.2
2017-Dec-08 15:00N 34°17' E 134°32'611.4
2017-Dec-08 14:30N 34°20' E 134°25'90 8.0
2017-Dec-08 03:14N 34°10' E 132°37'311.4
2017-Dec-08 03:00N 34°11' E 132°34'2 4.6
2017-Dec-08 02:30N 34°13' E 132°32'0 0.0
2017-Dec-08 01:59N 34°13' E 132°32'0 0.0
2017-Dec-08 01:29N 34°13' E 132°32'0 0.0
2017-Dec-08 00:59N 34°13' E 132°32'0 0.0
2017-Dec-08 00:29N 34°13' E 132°32'0 0.0
2017-Dec-07 23:59N 34°13' E 132°32'0 0.0
2017-Dec-07 23:29N 34°13' E 132°32'0 0.0
2017-Dec-07 22:59N 34°13' E 132°32'0 0.0
2017-Dec-07 22:29N 34°13' E 132°32'0 0.5
2017-Dec-07 22:01N 34°13' E 132°32'0 0.2
2017-Dec-07 21:28N 34°13' E 132°32'0 0.0
2017-Dec-07 21:01N 34°13' E 132°32'0 0.0
2017-Dec-07 20:28N 34°13' E 132°32'0 0.0
2017-Dec-07 20:00N 34°13' E 132°32'0 0.0
2017-Dec-07 19:30N 34°13' E 132°32'0 0.0
2017-Dec-07 19:00N 34°13' E 132°32'0 0.0
2017-Dec-07 18:28N 34°13' E 132°32'0 0.0
2017-Dec-07 18:01N 34°13' E 132°32'0 0.0
2017-Dec-07 17:31N 34°13' E 132°32'0 0.1
2017-Dec-07 17:00N 34°13' E 132°32'0 0.1
2017-Dec-07 16:30N 34°13' E 132°32'0 0.0
2017-Dec-07 16:00N 34°13' E 132°32'0 0.0
2017-Dec-07 15:30N 34°13' E 132°32'0 0.1
2017-Dec-07 15:00N 34°13' E 132°32'0 0.0
2017-Dec-07 14:30N 34°13' E 132°32'0 0.0
2017-Dec-07 14:00N 34°13' E 132°32'1 2.6
2017-Dec-07 13:30N 34°11' E 132°33'  
Track history (hours):
 
Tides and Currents Weather Stations Pressure Air Temp Water Temp Dewpoint Dewpoint Depression Visibility Wind Speed Wind Dir Waves Ship Positions

Satumimaru

Last reported at 2017-Dec-17 07:35 UTC. Time now 2017-Dec-18 16:31 UTC.
Position N 33°13' E 131°55'.

Length 82 m; draft 5.4 m.

Type: Cargo ship. MMSI: 431007046.

Date/timePositionNaut miles runAvg speedWind from/ knotsBaromVisibWave heightAir tempDewpointWater temp
2017-Dec-17 07:35N 33°13' E 131°55'4 9.9
2017-Dec-17 07:09N 33°17' E 131°53'212.7
2017-Dec-17 07:00N 33°17' E 131°51'612.5
2017-Dec-17 06:29N 33°17' E 131°43'5 0.7
2017-Dec-16 23:31N 33°16' E 131°37'0 4.3
2017-Dec-16 23:30N 33°16' E 131°37'1 1.8
2017-Dec-16 22:58N 33°17' E 131°37'1 2.8
2017-Dec-16 22:27N 33°18' E 131°38'5 7.5
2017-Dec-16 21:48N 33°21' E 131°43'5 7.7
2017-Dec-16 21:11N 33°23' E 131°48'410.3
2017-Dec-16 20:50N 33°25' E 131°51'3310.3
2017-Dec-16 17:36N 33°45' E 132°24'112.1
2017-Dec-16 17:29N 33°46' E 132°25'612.0
2017-Dec-16 17:00N 33°49' E 132°31'612.3
2017-Dec-16 16:31N 33°53' E 132°36'712.8
2017-Dec-16 16:00N 33°57' E 132°42'7910.9
2017-Dec-16 08:44N 34°32' E 134°08'1411.3
2017-Dec-16 07:29N 34°39' E 134°23'710.9
2017-Dec-16 06:50N 34°42' E 134°31'410.9
2017-Dec-16 06:30N 34°43' E 134°35'5 7.1
2017-Dec-16 05:49N 34°47' E 134°39'0 0.0
2017-Dec-16 01:06N 34°47' E 134°39'0 0.1
2017-Dec-16 01:00N 34°47' E 134°39'0 0.0
2017-Dec-15 07:45N 34°47' E 134°39'1 4.5
2017-Dec-15 07:25N 34°45' E 134°39'0 0.1
2017-Dec-15 06:58N 34°45' E 134°39'0 0.0
2017-Dec-15 06:28N 34°45' E 134°39'0 0.1
2017-Dec-15 05:53N 34°45' E 134°39'4 9.4
2017-Dec-15 05:30N 34°43' E 134°36'610.9
2017-Dec-15 04:57N 34°42' E 134°29'23 1.0
2017-Dec-14 05:01N 34°18' E 134°30'0 9.9
2017-Dec-14 05:00N 34°18' E 134°30'611.3
2017-Dec-14 04:27N 34°16' E 134°37'510.1
2017-Dec-14 04:00N 34°12' E 134°39'611.1
2017-Dec-14 03:27N 34°06' E 134°38'511.0
2017-Dec-14 03:00N 34°01' E 134°37'1 0.4
2017-Dec-13 23:58N 33°60' E 134°37'0 0.1
2017-Dec-13 23:13N 33°60' E 134°37'1 4.4
2017-Dec-13 22:59N 34°01' E 134°37'0 0.3
2017-Dec-13 22:00N 34°01' E 134°37'1011.6
2017-Dec-13 21:06N 34°11' E 134°40'113.4
2017-Dec-13 21:00N 34°12' E 134°40'611.9
2017-Dec-13 20:30N 34°18' E 134°37'612.6
2017-Dec-13 20:00N 34°24' E 134°37'612.3
2017-Dec-13 19:30N 34°30' E 134°37'612.4
2017-Dec-13 19:00N 34°37' E 134°38'612.4
2017-Dec-13 18:30N 34°43' E 134°38'2 3.0
2017-Dec-13 17:59N 34°44' E 134°38'0 0.0
2017-Dec-13 17:29N 34°44' E 134°38'0 0.0
2017-Dec-13 16:59N 34°44' E 134°38'0 0.0
2017-Dec-13 16:29N 34°44' E 134°38'2 4.7
2017-Dec-13 15:58N 34°47' E 134°38'0 0.1
2017-Dec-13 14:15N 34°47' E 134°38'0 0.0
2017-Dec-13 13:57N 34°47' E 134°38'0 0.0
2017-Dec-13 12:39N 34°47' E 134°38'0 0.0
2017-Dec-13 12:27N 34°47' E 134°38'1 0.3
2017-Dec-13 07:52N 34°45' E 134°38'1 1.1
2017-Dec-13 07:24N 34°45' E 134°38'0 0.0
2017-Dec-13 07:00N 34°45' E 134°38'0 0.0
2017-Dec-13 06:12N 34°45' E 134°38'0 0.0
2017-Dec-13 05:48N 34°45' E 134°38'0 0.1
2017-Dec-13 05:30N 34°45' E 134°38'0 0.0
2017-Dec-13 05:00N 34°45' E 134°38'0 0.0
2017-Dec-13 04:30N 34°45' E 134°38'0 0.0
2017-Dec-13 03:48N 34°45' E 134°38'0 0.0
2017-Dec-13 02:06N 34°45' E 134°38'0 0.0
2017-Dec-12 19:12N 34°45' E 134°38'0 0.0
2017-Dec-12 18:42N 34°45' E 134°38'0 0.0
2017-Dec-12 18:30N 34°45' E 134°38'0 0.0
2017-Dec-12 17:36N 34°45' E 134°38'0 0.0
2017-Dec-12 17:30N 34°45' E 134°38'0 0.0
2017-Dec-12 15:06N 34°45' E 134°38'0 0.0
2017-Dec-12 15:00N 34°45' E 134°38'0 0.0
2017-Dec-12 14:30N 34°45' E 134°38'0 0.0
2017-Dec-12 14:00N 34°45' E 134°38'0 0.0
2017-Dec-12 13:18N 34°45' E 134°38'0 0.0
2017-Dec-12 12:12N 34°45' E 134°38'1 3.0
2017-Dec-12 11:58N 34°44' E 134°39'4 9.5
2017-Dec-12 11:30N 34°40' E 134°38'612.0
2017-Dec-12 10:59N 34°34' E 134°38'611.7
2017-Dec-12 10:30N 34°28' E 134°38'611.7
2017-Dec-12 10:00N 34°22' E 134°38'9 9.6
2017-Dec-12 09:03N 34°13' E 134°40'610.7
2017-Dec-12 08:30N 34°09' E 134°45'1411.0
2017-Dec-12 07:14N 33°58' E 134°56'105 7.2
2017-Dec-11 16:38N 34°38' E 136°54'212.2
2017-Dec-11 16:30N 34°39' E 136°52'611.4
2017-Dec-11 16:00N 34°43' E 136°48'611.6
2017-Dec-11 15:30N 34°49' E 136°46'611.7
2017-Dec-11 15:00N 34°55' E 136°46'510.7
2017-Dec-11 14:30N 34°59' E 136°49'5 9.4
2017-Dec-11 14:00N 35°03' E 136°53'0 0.3
2017-Dec-11 13:30N 35°03' E 136°53'0 0.0
2017-Dec-11 13:00N 35°03' E 136°53'0 0.0
2017-Dec-11 12:30N 35°03' E 136°53'0 0.0
2017-Dec-11 12:00N 35°03' E 136°53'0 0.0
2017-Dec-11 11:30N 35°03' E 136°53'0 0.0
2017-Dec-11 11:00N 35°03' E 136°53'0 0.0
2017-Dec-11 10:30N 35°03' E 136°53'0 0.0
2017-Dec-11 10:00N 35°03' E 136°53'0 0.0
2017-Dec-11 09:30N 35°03' E 136°53'0 0.0
2017-Dec-11 09:00N 35°03' E 136°53'0 0.0
2017-Dec-11 08:30N 35°03' E 136°53'0 0.0
2017-Dec-11 08:00N 35°03' E 136°53'0 0.0
2017-Dec-11 07:30N 35°03' E 136°53'0 0.0
2017-Dec-11 07:00N 35°03' E 136°53'0 0.0
2017-Dec-11 06:30N 35°03' E 136°53'0 0.8
2017-Dec-11 06:00N 35°03' E 136°53'2 3.5
2017-Dec-11 05:30N 35°02' E 136°51'510.8
2017-Dec-11 05:00N 34°57' E 136°47'0 0.2
2017-Dec-11 04:30N 34°57' E 136°47'0 0.0
2017-Dec-11 04:00N 34°57' E 136°47'0 0.0
2017-Dec-11 03:30N 34°57' E 136°47'0 0.0
2017-Dec-11 03:00N 34°57' E 136°47'0 0.0
2017-Dec-11 02:30N 34°57' E 136°47'0 0.0
2017-Dec-11 02:00N 34°57' E 136°47'0 0.0
2017-Dec-11 01:30N 34°57' E 136°47'0 0.1
2017-Dec-11 01:00N 34°57' E 136°47'0 0.0
2017-Dec-11 00:30N 34°57' E 136°47'0 0.0
2017-Dec-11 00:00N 34°57' E 136°47'0 0.0
2017-Dec-10 23:30N 34°57' E 136°47'0 0.0
2017-Dec-10 23:00N 34°57' E 136°47'1 1.1
2017-Dec-10 22:30N 34°57' E 136°47'611.7
2017-Dec-10 22:00N 34°51' E 136°46'612.5
2017-Dec-10 21:30N 34°45' E 136°49'612.5
2017-Dec-10 21:00N 34°40' E 136°53'9612.1
2017-Dec-10 13:05N 34°35' E 138°49'511.8
2017-Dec-10 12:41N 34°36' E 138°54'211.3
2017-Dec-10 12:31N 34°36' E 138°57'612.8
2017-Dec-10 12:00N 34°40' E 139°03'812.9
2017-Dec-10 11:21N 34°46' E 139°11'1710.7
2017-Dec-10 09:47N 34°56' E 139°26'310.3
2017-Dec-10 09:30N 34°58' E 139°29'510.8
2017-Dec-10 09:00N 35°02' E 139°34'611.4
2017-Dec-10 08:30N 35°06' E 139°39'612.2
2017-Dec-10 08:00N 35°10' E 139°44'611.5
2017-Dec-10 07:30N 35°15' E 139°46'612.2
2017-Dec-10 07:00N 35°21' E 139°42'510.3
2017-Dec-10 06:30N 35°25' E 139°45'611.5
2017-Dec-10 06:00N 35°23' E 139°51'1 2.3
2017-Dec-10 05:30N 35°22' E 139°53'0 0.0
2017-Dec-10 04:59N 35°22' E 139°53'0 0.0
2017-Dec-10 04:26N 35°22' E 139°53'0 0.0
2017-Dec-10 03:59N 35°22' E 139°53'0 0.0
2017-Dec-10 03:26N 35°22' E 139°53'0 0.0
2017-Dec-10 02:59N 35°22' E 139°53'0 0.0
2017-Dec-10 02:29N 35°22' E 139°53'0 0.0
2017-Dec-10 01:59N 35°22' E 139°53'0 0.0
2017-Dec-10 01:26N 35°22' E 139°53'0 0.0
2017-Dec-10 00:59N 35°22' E 139°53'0 0.0
2017-Dec-10 00:26N 35°22' E 139°53'0 0.0
2017-Dec-09 23:59N 35°22' E 139°53'0 0.0
2017-Dec-09 23:26N 35°22' E 139°53'0 0.0
2017-Dec-09 22:50N 35°22' E 139°53'0 0.0
2017-Dec-09 22:17N 35°22' E 139°53'0 0.0
2017-Dec-09 21:56N 35°22' E 139°53'0 0.0
2017-Dec-09 21:26N 35°22' E 139°53'0 0.0
2017-Dec-09 21:00N 35°22' E 139°53'1 2.6
2017-Dec-09 20:30N 35°23' E 139°51'2 4.0
2017-Dec-09 20:00N 35°23' E 139°49'1 1.5
2017-Dec-09 19:31N 35°23' E 139°48'3 6.5
2017-Dec-09 19:01N 35°21' E 139°45'5 9.5
2017-Dec-09 18:31N 35°16' E 139°46'510.1
2017-Dec-09 18:00N 35°11' E 139°47'510.3
2017-Dec-09 17:30N 35°07' E 139°42'611.1
2017-Dec-09 17:01N 35°04' E 139°38'612.7
2017-Dec-09 16:31N 34°59' E 139°32'813.0
2017-Dec-09 15:56N 34°54' E 139°25'813.4
2017-Dec-09 15:21N 34°49' E 139°18'513.1
2017-Dec-09 15:00N 34°46' E 139°14'714.0
2017-Dec-09 14:30N 34°42' E 139°07'712.5
2017-Dec-09 13:56N 34°37' E 139°00'612.7
2017-Dec-09 13:30N 34°35' E 138°55'813.1
2017-Dec-09 12:56N 34°34' E 138°45'613.3
2017-Dec-09 12:30N 34°33' E 138°39'713.1
2017-Dec-09 11:58N 34°32' E 138°30'612.0
2017-Dec-09 11:29N 34°31' E 138°23'611.8
2017-Dec-09 10:59N 34°30' E 138°16'16210.0
2017-Dec-08 18:45N 33°46' E 135°07'311.5
2017-Dec-08 18:29N 33°49' E 135°05'611.7
2017-Dec-08 18:00N 33°53' E 135°00'611.8
2017-Dec-08 17:30N 33°57' E 134°56'611.7
2017-Dec-08 17:00N 34°02' E 134°51'611.9
2017-Dec-08 16:30N 34°06' E 134°47'611.9
2017-Dec-08 16:00N 34°11' E 134°42'611.2
2017-Dec-08 15:30N 34°15' E 134°38'611.2
2017-Dec-08 15:00N 34°17' E 134°32'611.4
2017-Dec-08 14:30N 34°20' E 134°25'90 8.0
2017-Dec-08 03:14N 34°10' E 132°37'311.4
2017-Dec-08 03:00N 34°11' E 132°34'2 4.6
2017-Dec-08 02:30N 34°13' E 132°32'0 0.0
2017-Dec-08 01:59N 34°13' E 132°32'0 0.0
2017-Dec-08 01:29N 34°13' E 132°32'0 0.0
2017-Dec-08 00:59N 34°13' E 132°32'0 0.0
2017-Dec-08 00:29N 34°13' E 132°32'0 0.0
2017-Dec-07 23:59N 34°13' E 132°32'0 0.0
2017-Dec-07 23:29N 34°13' E 132°32'0 0.0
2017-Dec-07 22:59N 34°13' E 132°32'0 0.0
2017-Dec-07 22:29N 34°13' E 132°32'0 0.5
2017-Dec-07 22:01N 34°13' E 132°32'0 0.2
2017-Dec-07 21:28N 34°13' E 132°32'0 0.0
2017-Dec-07 21:01N 34°13' E 132°32'0 0.0
2017-Dec-07 20:28N 34°13' E 132°32'0 0.0
2017-Dec-07 20:00N 34°13' E 132°32'0 0.0
2017-Dec-07 19:30N 34°13' E 132°32'0 0.0
2017-Dec-07 19:00N 34°13' E 132°32'0 0.0
2017-Dec-07 18:28N 34°13' E 132°32'0 0.0
2017-Dec-07 18:01N 34°13' E 132°32'0 0.0
2017-Dec-07 17:31N 34°13' E 132°32'0 0.1
2017-Dec-07 17:00N 34°13' E 132°32'0 0.1
2017-Dec-07 16:30N 34°13' E 132°32'0 0.0
2017-Dec-07 16:00N 34°13' E 132°32'0 0.0
2017-Dec-07 15:30N 34°13' E 132°32'0 0.1
2017-Dec-07 15:00N 34°13' E 132°32'0 0.0
2017-Dec-07 14:30N 34°13' E 132°32'0 0.0
2017-Dec-07 14:00N 34°13' E 132°32'1 2.6
2017-Dec-07 13:30N 34°11' E 132°33'  

Dump ship's entire track history